createdAt,value
2022-07-26T00:00:17.842Z,27.38
2022-07-26T00:02:47.619Z,27.36
2022-07-26T00:05:16.533Z,27.29
2022-07-26T00:07:44.259Z,27.32
2022-07-26T00:10:12.014Z,27.32
2022-07-26T00:12:39.892Z,27.30
2022-07-26T00:15:08.728Z,27.28
2022-07-26T00:17:36.548Z,27.25
2022-07-26T00:20:06.904Z,27.24
2022-07-26T00:22:39.724Z,27.22
2022-07-26T00:25:08.650Z,27.21
2022-07-26T00:27:37.588Z,27.18
2022-07-26T00:30:06.612Z,27.17
2022-07-26T00:32:34.347Z,27.14
2022-07-26T00:35:02.067Z,27.13
2022-07-26T00:37:31.129Z,27.12
2022-07-26T00:39:58.819Z,27.12
2022-07-26T00:42:26.552Z,27.10
2022-07-26T00:44:54.260Z,27.03
2022-07-26T00:47:21.998Z,26.84
2022-07-26T00:49:49.697Z,27.06
2022-07-26T00:52:17.588Z,26.68
2022-07-26T00:54:46.705Z,26.78
2022-07-26T00:57:14.971Z,27.05
2022-07-26T00:59:42.752Z,27.03
2022-07-26T01:02:10.723Z,26.82
2022-07-26T01:04:38.517Z,26.99
2022-07-26T01:07:15.050Z,27.00
2022-07-26T01:09:43.376Z,26.94
2022-07-26T01:12:12.801Z,26.97
2022-07-26T01:14:43.345Z,26.96
2022-07-26T01:17:11.104Z,26.95
2022-07-26T01:19:38.815Z,26.95
2022-07-26T01:22:12.435Z,26.94
2022-07-26T01:24:41.962Z,26.94
2022-07-26T01:27:09.708Z,26.92
2022-07-26T01:29:37.525Z,26.90
2022-07-26T01:32:05.599Z,26.90
2022-07-26T01:34:33.292Z,26.87
2022-07-26T01:37:01.058Z,26.87
2022-07-26T01:39:30.100Z,26.87
2022-07-26T01:41:57.837Z,26.87
2022-07-26T01:44:25.605Z,26.63
2022-07-26T01:46:53.362Z,26.85
2022-07-26T01:49:21.120Z,26.84
2022-07-26T01:51:48.905Z,26.83
2022-07-26T01:54:22.339Z,26.83
2022-07-26T01:56:53.643Z,26.82
2022-07-26T01:59:21.339Z,26.80
2022-07-26T02:01:49.142Z,26.74
2022-07-26T02:04:30.844Z,26.75
2022-07-26T02:06:58.901Z,26.49
2022-07-26T02:09:26.598Z,26.75
2022-07-26T02:11:58.446Z,26.74
2022-07-26T02:14:28.023Z,26.72
2022-07-26T02:16:59.909Z,26.70
2022-07-26T02:19:28.095Z,26.69
2022-07-26T02:21:55.849Z,26.69
2022-07-26T02:24:23.592Z,26.37
2022-07-26T02:26:51.317Z,26.68
2022-07-26T02:29:20.360Z,26.68
2022-07-26T02:31:48.257Z,26.67
2022-07-26T02:34:16.987Z,26.65
2022-07-26T02:36:44.870Z,26.27
2022-07-26T02:39:12.673Z,26.21
2022-07-26T02:41:40.486Z,26.62
2022-07-26T02:44:09.014Z,26.61
2022-07-26T02:46:38.558Z,26.60
2022-07-26T02:49:06.414Z,26.57
2022-07-26T02:51:34.453Z,26.57
2022-07-26T02:54:02.178Z,26.56
2022-07-26T02:56:29.913Z,26.56
2022-07-26T02:58:57.629Z,26.57
2022-07-26T03:01:25.383Z,26.55
2022-07-26T03:03:54.489Z,26.55
2022-07-26T03:06:22.204Z,26.53
2022-07-26T03:08:50.137Z,26.50
2022-07-26T03:11:17.933Z,26.51
2022-07-26T03:13:45.648Z,26.49
2022-07-26T03:16:13.442Z,26.50
2022-07-26T03:18:41.194Z,26.49
2022-07-26T03:21:10.432Z,26.48
2022-07-26T03:23:38.130Z,26.44
2022-07-26T03:26:05.969Z,26.46
2022-07-26T03:28:34.373Z,26.28
2022-07-26T03:31:02.220Z,26.12
2022-07-26T03:33:30.227Z,26.04
2022-07-26T03:35:57.987Z,26.42
2022-07-26T03:38:27.097Z,26.40
2022-07-26T03:40:54.834Z,26.40
2022-07-26T03:43:23.395Z,26.37
2022-07-26T03:45:51.348Z,26.30
2022-07-26T03:48:22.400Z,26.38
2022-07-26T03:50:50.114Z,26.38
2022-07-26T03:53:17.841Z,26.37
2022-07-26T03:56:04.451Z,26.35
2022-07-26T03:58:32.203Z,26.35
2022-07-26T04:01:00.006Z,26.34
2022-07-26T04:03:27.820Z,26.33
2022-07-26T04:05:56.061Z,26.32
2022-07-26T04:08:23.881Z,26.31
2022-07-26T04:10:52.945Z,26.29
2022-07-26T04:13:20.777Z,25.93
2022-07-26T04:15:48.607Z,26.05
2022-07-26T04:18:16.354Z,26.28
2022-07-26T04:20:44.220Z,26.27
2022-07-26T04:23:12.466Z,26.25
2022-07-26T04:25:41.362Z,26.25
2022-07-26T04:28:10.739Z,26.23
2022-07-26T04:30:38.523Z,26.22
2022-07-26T04:33:06.314Z,26.21
2022-07-26T04:35:34.068Z,26.20
2022-07-26T04:38:02.034Z,26.20
2022-07-26T04:40:33.413Z,26.18
2022-07-26T04:43:01.267Z,26.18
2022-07-26T04:45:30.382Z,26.17
2022-07-26T04:47:58.161Z,26.17
2022-07-26T04:50:25.985Z,25.57
2022-07-26T04:52:53.717Z,26.16
2022-07-26T04:55:21.519Z,26.19
2022-07-26T04:57:49.552Z,26.15
2022-07-26T05:00:23.000Z,26.12
2022-07-26T05:02:54.594Z,25.92
2022-07-26T05:05:22.924Z,26.11
2022-07-26T05:07:52.527Z,26.13
2022-07-26T05:10:21.621Z,25.76
2022-07-26T05:12:49.570Z,26.11
2022-07-26T05:15:17.265Z,26.10
2022-07-26T05:17:45.039Z,25.76
2022-07-26T05:20:15.889Z,26.08
2022-07-26T05:22:43.714Z,26.09
2022-07-26T05:25:11.418Z,25.79
2022-07-26T05:27:40.659Z,26.12
2022-07-26T05:30:09.879Z,26.13
2022-07-26T05:32:37.727Z,26.11
2022-07-26T05:35:06.306Z,26.09
2022-07-26T05:37:35.536Z,26.02
2022-07-26T05:40:03.284Z,25.92
2022-07-26T05:42:31.028Z,25.66
2022-07-26T05:44:58.747Z,25.61
2022-07-26T05:47:26.511Z,25.58
2022-07-26T05:49:55.207Z,25.53
2022-07-26T05:52:23.346Z,25.44
2022-07-26T05:54:52.382Z,25.40
2022-07-26T05:57:20.116Z,25.36
2022-07-26T05:59:47.840Z,25.35
2022-07-26T06:02:15.687Z,25.33
2022-07-26T06:04:43.555Z,25.29
2022-07-26T06:07:15.063Z,25.22
2022-07-26T06:09:42.779Z,25.21
2022-07-26T06:12:11.921Z,24.86
2022-07-26T06:14:39.625Z,25.13
2022-07-26T06:17:07.488Z,25.17
2022-07-26T06:19:35.701Z,25.21
2022-07-26T06:22:03.406Z,25.27
2022-07-26T06:24:31.125Z,25.33
2022-07-26T06:27:04.684Z,25.45
2022-07-26T06:29:34.531Z,25.42
2022-07-26T06:32:02.337Z,25.34
2022-07-26T06:34:30.146Z,25.26
2022-07-26T06:36:57.851Z,25.24
2022-07-26T06:39:25.583Z,25.22
2022-07-26T06:41:53.284Z,25.34
2022-07-26T06:44:21.003Z,25.45
2022-07-26T06:46:50.046Z,25.56
2022-07-26T06:49:22.228Z,25.66
2022-07-26T06:51:50.504Z,25.74
2022-07-26T06:54:18.231Z,25.85
2022-07-26T06:56:45.930Z,25.93
2022-07-26T06:59:13.715Z,25.96
2022-07-26T07:01:57.617Z,26.00
2022-07-26T07:04:29.764Z,26.05
2022-07-26T07:07:02.339Z,26.09
2022-07-26T07:09:33.356Z,26.14
2022-07-26T07:12:08.297Z,26.20
2022-07-26T07:14:38.391Z,26.24
2022-07-26T07:17:10.436Z,26.27
2022-07-26T07:19:42.199Z,26.31
2022-07-26T07:22:12.332Z,26.31
2022-07-26T07:24:40.494Z,26.36
2022-07-26T07:27:08.247Z,26.14
2022-07-26T07:29:35.988Z,26.41
2022-07-26T07:32:03.873Z,26.42
2022-07-26T07:34:31.675Z,26.44
2022-07-26T07:37:01.576Z,26.46
2022-07-26T07:39:34.927Z,26.47
2022-07-26T07:42:06.573Z,26.48
2022-07-26T07:44:34.314Z,26.50
2022-07-26T07:47:02.126Z,26.26
2022-07-26T07:49:30.045Z,26.52
2022-07-26T07:51:57.785Z,26.51
2022-07-26T07:54:26.868Z,26.52
2022-07-26T07:56:56.318Z,26.53
2022-07-26T07:59:24.071Z,26.54
2022-07-26T08:01:51.848Z,26.40
2022-07-26T08:04:19.857Z,26.60
2022-07-26T08:06:50.454Z,26.62
2022-07-26T08:09:19.287Z,26.57
2022-07-26T08:11:50.759Z,26.55
2022-07-26T08:14:19.042Z,26.67
2022-07-26T08:16:47.200Z,26.66
2022-07-26T08:19:15.441Z,26.66
2022-07-26T08:21:46.055Z,26.65
2022-07-26T08:24:14.666Z,26.69
2022-07-26T08:26:42.373Z,26.70
2022-07-26T08:29:11.966Z,26.75
2022-07-26T08:31:40.028Z,26.76
2022-07-26T08:34:07.806Z,26.80
2022-07-26T08:36:35.506Z,26.80
2022-07-26T08:39:03.246Z,26.78
2022-07-26T08:41:31.510Z,26.77
2022-07-26T08:44:06.061Z,26.78
2022-07-26T08:46:35.965Z,26.72
2022-07-26T08:49:03.615Z,26.72
2022-07-26T08:51:31.404Z,26.71
2022-07-26T08:54:05.451Z,26.73
2022-07-26T08:56:34.918Z,26.74
2022-07-26T08:59:05.498Z,26.73
2022-07-26T09:01:34.935Z,26.73
2022-07-26T09:04:30.937Z,26.72
2022-07-26T09:07:01.146Z,26.70
2022-07-26T09:09:28.971Z,26.70
2022-07-26T09:11:56.947Z,26.72
2022-07-26T09:14:24.809Z,26.72
2022-07-26T09:17:00.402Z,26.73
2022-07-26T09:19:28.327Z,26.51
2022-07-26T09:21:57.862Z,26.40
2022-07-26T09:24:32.524Z,26.76
2022-07-26T09:27:00.817Z,26.38
2022-07-26T09:29:29.536Z,26.72
2022-07-26T09:32:12.210Z,26.65
2022-07-26T09:34:52.031Z,26.74
2022-07-26T09:37:20.605Z,26.64
2022-07-26T09:39:55.040Z,26.81
2022-07-26T09:42:29.315Z,26.42
2022-07-26T09:44:57.969Z,26.79
2022-07-26T09:47:36.233Z,26.78
2022-07-26T09:50:14.370Z,26.78
2022-07-26T09:52:42.238Z,26.74
2022-07-26T09:55:13.182Z,26.73
2022-07-26T09:57:40.906Z,26.72
2022-07-26T10:00:09.875Z,26.66
2022-07-26T10:02:38.955Z,26.64
2022-07-26T10:05:07.646Z,26.62
2022-07-26T10:07:35.388Z,26.61
2022-07-26T10:10:04.996Z,26.58
2022-07-26T10:12:33.509Z,26.40
2022-07-26T10:15:01.264Z,26.54
2022-07-26T10:17:49.486Z,26.54
2022-07-26T10:20:45.493Z,26.49
2022-07-26T10:23:38.547Z,26.49
2022-07-26T10:26:07.136Z,25.95
2022-07-26T10:28:38.032Z,26.44
2022-07-26T10:31:38.992Z,26.44
2022-07-26T10:34:08.263Z,26.42
2022-07-26T10:36:36.989Z,26.41
2022-07-26T10:39:10.051Z,26.39
2022-07-26T10:41:39.500Z,26.40
2022-07-26T10:44:21.494Z,26.28
2022-07-26T10:46:56.494Z,26.40
2022-07-26T10:49:30.274Z,26.39
2022-07-26T10:52:16.820Z,26.40
2022-07-26T10:55:11.017Z,26.37
2022-07-26T10:57:39.993Z,26.35
2022-07-26T11:00:26.885Z,26.33
2022-07-26T11:02:58.714Z,26.32
2022-07-26T11:05:31.171Z,26.32
2022-07-26T11:08:08.140Z,26.16
2022-07-26T11:10:36.917Z,26.29
2022-07-26T11:13:10.572Z,26.27
2022-07-26T11:15:39.217Z,25.92
2022-07-26T11:18:11.381Z,26.25
2022-07-26T11:20:40.574Z,26.24
2022-07-26T11:23:21.380Z,26.22
2022-07-26T11:26:02.429Z,26.20
2022-07-26T11:28:30.273Z,26.19
2022-07-26T11:30:58.481Z,26.20
2022-07-26T11:33:38.510Z,26.19
2022-07-26T11:36:07.683Z,26.14
2022-07-26T11:38:48.551Z,26.10
2022-07-26T11:41:16.552Z,26.15
2022-07-26T11:43:44.264Z,26.16
2022-07-26T11:46:12.019Z,26.15
2022-07-26T11:48:40.230Z,26.17
2022-07-26T11:51:13.189Z,26.17
2022-07-26T11:53:40.945Z,26.17
2022-07-26T11:56:27.063Z,26.17
2022-07-26T11:58:56.507Z,26.16
2022-07-26T12:01:25.354Z,26.17
2022-07-26T12:03:54.066Z,26.15
2022-07-26T12:08:46.161Z,26.11
2022-07-26T12:11:15.516Z,26.09
2022-07-26T12:13:55.519Z,26.11
2022-07-26T12:16:37.895Z,26.10
2022-07-26T12:19:05.636Z,26.10
2022-07-26T12:21:43.871Z,26.12
2022-07-26T12:24:14.174Z,26.10
2022-07-26T12:26:42.122Z,26.05
2022-07-26T12:29:33.059Z,26.13
2022-07-26T12:32:10.287Z,25.79
2022-07-26T12:34:40.260Z,26.01
2022-07-26T12:37:17.818Z,25.91
2022-07-26T12:40:02.969Z,26.14
2022-07-26T12:42:33.480Z,26.04
2022-07-26T12:45:02.825Z,26.21
2022-07-26T12:47:30.634Z,26.18
2022-07-26T12:49:58.376Z,26.22
2022-07-26T12:52:26.093Z,26.22
2022-07-26T12:54:54.177Z,26.11
2022-07-26T12:57:23.291Z,25.99
2022-07-26T12:59:51.049Z,26.16
2022-07-26T13:02:18.945Z,26.18
2022-07-26T13:04:46.892Z,26.19
2022-07-26T13:07:14.798Z,25.99
2022-07-26T13:09:42.580Z,26.17
2022-07-26T13:12:10.899Z,26.14
2022-07-26T13:14:40.212Z,26.11
2022-07-26T13:17:08.515Z,25.98
2022-07-26T13:19:36.406Z,26.09
2022-07-26T13:22:04.963Z,25.97
2022-07-26T13:24:33.521Z,25.95
2022-07-26T13:27:01.298Z,25.94
2022-07-26T13:29:29.848Z,25.92
2022-07-26T13:32:00.257Z,25.86
2022-07-26T13:34:33.009Z,25.57
2022-07-26T13:37:02.593Z,25.88
2022-07-26T13:39:36.260Z,25.80
2022-07-26T13:42:04.008Z,25.80
2022-07-26T13:44:31.736Z,25.76
2022-07-26T13:47:02.192Z,25.74
2022-07-26T13:49:30.998Z,25.73
2022-07-26T13:51:58.815Z,25.76
2022-07-26T13:54:27.635Z,25.76
2022-07-26T13:56:55.853Z,25.76
2022-07-26T13:59:23.606Z,25.79
2022-07-26T14:01:51.448Z,25.51
2022-07-26T14:04:20.627Z,25.81
2022-07-26T14:06:48.517Z,25.72
2022-07-26T14:09:16.384Z,25.82
2022-07-26T14:11:44.203Z,25.82
2022-07-26T14:14:12.419Z,25.81
2022-07-26T14:16:40.772Z,25.52
2022-07-26T14:19:08.604Z,25.75
2022-07-26T14:21:46.954Z,25.73
2022-07-26T14:24:18.986Z,25.57
2022-07-26T14:26:48.816Z,25.77
2022-07-26T14:29:16.640Z,25.78
2022-07-26T14:31:45.551Z,25.72
2022-07-26T14:34:14.459Z,25.76
2022-07-26T14:36:43.870Z,25.77
2022-07-26T14:39:11.678Z,25.73
2022-07-26T14:41:39.554Z,25.76
2022-07-26T14:44:07.559Z,25.76
2022-07-26T14:46:35.552Z,25.78
2022-07-26T14:49:03.367Z,25.78
2022-07-26T14:51:31.250Z,25.65
2022-07-26T14:54:00.344Z,25.77
2022-07-26T14:56:28.093Z,25.76
2022-07-26T14:58:55.819Z,25.79
2022-07-26T15:01:23.851Z,25.80
2022-07-26T15:03:51.733Z,25.83
2022-07-26T15:06:19.514Z,25.79
2022-07-26T15:08:47.272Z,25.78
2022-07-26T15:11:16.928Z,25.77
2022-07-26T15:13:44.690Z,25.72
2022-07-26T15:16:13.855Z,25.71
2022-07-26T15:18:41.669Z,25.69
2022-07-26T15:21:09.492Z,25.68
2022-07-26T15:23:39.278Z,25.66
2022-07-26T15:26:07.040Z,25.65
2022-07-26T15:28:36.131Z,25.65
2022-07-26T15:31:03.888Z,25.63
2022-07-26T15:33:32.488Z,25.63
2022-07-26T15:36:03.979Z,25.61
2022-07-26T15:38:33.575Z,25.60
2022-07-26T15:41:01.317Z,25.60
2022-07-26T15:43:48.910Z,25.40
2022-07-26T15:46:19.669Z,24.94
2022-07-26T15:48:49.543Z,25.57
2022-07-26T15:51:17.494Z,25.59
2022-07-26T15:53:46.695Z,25.36
2022-07-26T15:56:14.725Z,25.54
2022-07-26T15:58:42.475Z,25.54
2022-07-26T16:01:12.829Z,25.50
2022-07-26T16:03:41.974Z,25.54
2022-07-26T16:06:09.695Z,25.52
2022-07-26T16:08:52.727Z,25.53
2022-07-26T16:11:25.468Z,25.55
2022-07-26T16:13:53.184Z,25.57
2022-07-26T16:16:30.230Z,25.49
2022-07-26T16:18:59.563Z,25.32
2022-07-26T16:21:27.301Z,25.65
2022-07-26T16:23:55.036Z,25.66
2022-07-26T16:26:23.508Z,25.66
2022-07-26T16:28:51.249Z,25.67
2022-07-26T16:31:19.076Z,25.65
2022-07-26T16:33:46.987Z,25.65
2022-07-26T16:36:17.070Z,25.64
2022-07-26T16:38:44.828Z,25.65
2022-07-26T16:41:12.833Z,25.66
2022-07-26T16:43:40.625Z,25.68
2022-07-26T16:46:08.361Z,25.68
2022-07-26T16:48:36.125Z,25.68
2022-07-26T16:51:04.012Z,25.67
2022-07-26T16:53:33.204Z,25.55
2022-07-26T16:56:00.952Z,25.68
2022-07-26T16:58:28.696Z,25.66
2022-07-26T17:00:56.597Z,25.68
2022-07-26T17:03:24.689Z,25.70
2022-07-26T17:05:52.571Z,25.69
2022-07-26T17:08:20.324Z,25.70
2022-07-26T17:10:49.392Z,25.34
2022-07-26T17:13:17.151Z,25.67
2022-07-26T17:15:44.952Z,25.71
2022-07-26T17:18:13.190Z,25.45
2022-07-26T17:20:41.098Z,25.69
2022-07-26T17:23:09.095Z,25.62
2022-07-26T17:25:36.839Z,25.69
2022-07-26T17:28:06.571Z,25.68
2022-07-26T17:30:34.343Z,25.70
2022-07-26T17:33:02.141Z,25.68
2022-07-26T17:35:29.933Z,25.69
2022-07-26T17:37:57.697Z,25.64
2022-07-26T17:40:25.671Z,25.67
2022-07-26T17:42:53.841Z,25.68
2022-07-26T17:45:23.048Z,25.68
2022-07-26T17:47:50.802Z,25.67
2022-07-26T17:53:06.291Z,25.69
2022-07-26T17:55:34.367Z,25.65
2022-07-26T17:58:02.120Z,25.65
2022-07-26T18:00:31.210Z,25.63
2022-07-26T18:02:58.977Z,25.65
2022-07-26T18:05:34.024Z,25.65
2022-07-26T18:08:03.811Z,25.41
2022-07-26T18:10:31.545Z,25.68
2022-07-26T18:12:59.331Z,25.66
2022-07-26T18:15:27.063Z,25.67
2022-07-26T18:17:56.213Z,25.68
2022-07-26T18:20:24.091Z,25.66
2022-07-26T18:22:53.705Z,25.62
2022-07-26T18:25:21.646Z,25.59
2022-07-26T18:27:49.837Z,25.56
2022-07-26T18:30:17.560Z,25.55
2022-07-26T18:32:45.394Z,25.54
2022-07-26T18:35:14.512Z,25.41
2022-07-26T18:37:42.264Z,25.51
2022-07-26T18:40:10.381Z,25.51
2022-07-26T18:42:38.133Z,25.38
2022-07-26T18:45:06.941Z,25.46
2022-07-26T18:47:34.670Z,25.43
2022-07-26T18:50:02.422Z,25.43
2022-07-26T18:52:32.789Z,25.42
2022-07-26T18:55:02.388Z,25.43
2022-07-26T18:57:30.213Z,25.41
2022-07-26T18:59:57.924Z,25.38
2022-07-26T19:02:25.709Z,25.04
2022-07-26T19:04:53.493Z,25.30
2022-07-26T19:07:21.255Z,25.28
2022-07-26T19:09:52.672Z,25.27
2022-07-26T19:12:24.211Z,25.26
2022-07-26T19:14:51.951Z,25.25
2022-07-26T19:17:20.700Z,25.20
2022-07-26T19:19:48.416Z,25.22
2022-07-26T19:22:16.158Z,25.21
2022-07-26T19:24:43.875Z,24.94
2022-07-26T19:27:14.974Z,25.14
2022-07-26T19:29:42.816Z,25.00
2022-07-26T19:32:10.561Z,25.15
2022-07-26T19:34:38.277Z,25.15
2022-07-26T19:37:06.015Z,25.13
2022-07-26T19:39:33.716Z,25.12
2022-07-26T19:42:01.512Z,25.10
2022-07-26T19:44:30.643Z,25.09
2022-07-26T19:46:58.373Z,25.06
2022-07-26T19:49:26.206Z,25.08
2022-07-26T19:51:54.001Z,25.08
2022-07-26T19:54:22.897Z,24.73
2022-07-26T19:56:50.629Z,25.06
2022-07-26T19:59:23.301Z,25.06
2022-07-26T20:01:56.572Z,24.72
2022-07-26T20:04:26.068Z,24.96
2022-07-26T20:06:53.816Z,24.99
2022-07-26T20:09:21.533Z,24.99
2022-07-26T20:11:51.807Z,24.97
2022-07-26T20:14:19.639Z,24.73
2022-07-26T20:16:48.339Z,24.69
2022-07-26T20:19:19.581Z,24.93
2022-07-26T20:21:47.381Z,24.92
2022-07-26T20:24:15.721Z,24.87
2022-07-26T20:26:43.449Z,24.89
2022-07-26T20:29:12.389Z,24.84
2022-07-26T20:31:40.259Z,24.85
2022-07-26T20:34:07.995Z,24.73
2022-07-26T20:36:37.052Z,24.84
2022-07-26T20:39:05.044Z,24.83
2022-07-26T20:41:33.945Z,24.82
2022-07-26T20:44:01.899Z,24.73
2022-07-26T20:46:29.684Z,24.75
2022-07-26T20:48:57.555Z,24.78
2022-07-26T20:51:25.424Z,24.76
2022-07-26T20:53:54.497Z,24.75
2022-07-26T20:56:22.211Z,24.72
2022-07-26T20:58:49.951Z,24.69
2022-07-26T21:01:17.697Z,24.71
2022-07-26T21:03:45.451Z,24.70
2022-07-26T21:06:13.198Z,24.69
2022-07-26T21:08:41.984Z,24.68
2022-07-26T21:11:11.048Z,24.65
2022-07-26T21:13:38.787Z,24.64
2022-07-26T21:16:09.711Z,24.64
2022-07-26T21:18:38.401Z,24.64
2022-07-26T21:21:06.153Z,24.66
2022-07-26T21:23:33.901Z,24.65
2022-07-26T21:26:01.660Z,24.64
2022-07-26T21:28:30.734Z,24.62
2022-07-26T21:30:58.447Z,24.61
2022-07-26T21:33:26.197Z,24.60
2022-07-26T21:35:53.926Z,24.59
2022-07-26T21:38:21.669Z,24.60
2022-07-26T21:40:49.500Z,24.59
2022-07-26T21:43:17.334Z,24.60
2022-07-26T21:45:46.398Z,24.59
2022-07-26T21:48:14.435Z,24.26
2022-07-26T21:50:45.531Z,24.50
2022-07-26T21:53:13.603Z,24.47
2022-07-26T21:55:41.331Z,24.46
2022-07-26T21:58:09.100Z,24.44
2022-07-26T22:00:37.166Z,24.43
2022-07-26T22:03:06.267Z,24.09
2022-07-26T22:05:38.104Z,24.37
2022-07-26T22:08:09.873Z,24.08
2022-07-26T22:10:43.945Z,24.38
2022-07-26T22:13:12.503Z,24.36
2022-07-26T22:15:40.210Z,24.34
2022-07-26T22:18:09.964Z,24.34
2022-07-26T22:20:37.922Z,24.29
2022-07-26T22:23:07.122Z,24.32
2022-07-26T22:25:35.244Z,24.21
2022-07-26T22:28:03.065Z,24.32
2022-07-26T22:30:30.818Z,24.30
2022-07-26T22:32:58.901Z,24.29
2022-07-26T22:35:33.501Z,24.27
2022-07-26T22:38:04.941Z,24.05
2022-07-26T22:40:32.926Z,24.25
2022-07-26T22:43:00.708Z,24.21
2022-07-26T22:45:28.831Z,24.23
2022-07-26T22:47:56.935Z,24.18
2022-07-26T22:50:25.116Z,24.17
2022-07-26T22:52:54.253Z,24.05
2022-07-26T22:55:21.993Z,24.13
2022-07-26T22:57:49.741Z,24.12
2022-07-26T23:00:18.256Z,24.11
2022-07-26T23:02:46.120Z,23.80
2022-07-26T23:05:15.803Z,24.06
2022-07-26T23:07:44.826Z,23.73
2022-07-26T23:10:17.358Z,24.06
2022-07-26T23:12:45.105Z,24.05
2022-07-26T23:15:12.997Z,24.05
2022-07-26T23:17:40.750Z,24.03
2022-07-26T23:20:10.131Z,24.04
2022-07-26T23:22:38.283Z,24.02
2022-07-26T23:25:06.919Z,24.02
2022-07-26T23:27:36.089Z,23.65
2022-07-26T23:30:03.851Z,23.99
2022-07-26T23:32:31.605Z,23.99
2022-07-26T23:34:59.315Z,23.99
2022-07-26T23:37:27.635Z,23.98
2022-07-26T23:39:55.350Z,23.73
2022-07-26T23:42:23.092Z,23.95
2022-07-26T23:44:52.157Z,23.94
2022-07-26T23:47:19.918Z,23.93
2022-07-26T23:49:47.632Z,23.93
2022-07-26T23:52:15.470Z,23.92
2022-07-26T23:54:43.197Z,23.91
2022-07-26T23:57:10.927Z,23.89
2022-07-26T23:59:38.656Z,23.67
